Anacoco, Louisiana
Current Conditions -  °F | °C
As of 2:56 AM on Monday 24 Nov 2014 (Local Time) from KAQV Reporting Station
Clear Clear  
Wind Chill: 13°   Ceiling: Unl
Heat Index: 13°   Visibility: 10mi
Dew Point:   Wind: 5mph
Humidity: 69%   Direction: NA
Pressure: 29.76"   Gusts: NA
Location:  31.25°N, 93.34°W
Report Text: KAQV 240856Z AUTO VRB04KT 10SM CLR 13/08 A2976 RMK AO2 SLP076 6//// T01330078 53029 PNO $
Loading
Personal Weather Stations






























Interactive Weather Map New forecast layout! Learn more

10-Day Weather Forecast

Advertisements
Track Severe Weather on mobile